sensor_id;sensor_type;location;lat;lon;timestamp;temperature;humidity
306;DHT22;137;48.578;9.180;2024-02-15T00:01:51;10.00;98.20
306;DHT22;137;48.578;9.180;2024-02-15T00:04:18;10.10;98.20
306;DHT22;137;48.578;9.180;2024-02-15T00:06:46;10.20;98.20
306;DHT22;137;48.578;9.180;2024-02-15T00:09:13;10.30;98.20
306;DHT22;137;48.578;9.180;2024-02-15T00:11:40;10.30;98.20
306;DHT22;137;48.578;9.180;2024-02-15T00:14:07;10.30;98.20
306;DHT22;137;48.578;9.180;2024-02-15T00:16:34;10.30;98.20
306;DHT22;137;48.578;9.180;2024-02-15T00:19:01;10.30;98.20
306;DHT22;137;48.578;9.180;2024-02-15T00:21:28;10.30;98.20
306;DHT22;137;48.578;9.180;2024-02-15T00:23:56;10.30;98.20
306;DHT22;137;48.578;9.180;2024-02-15T00:26:25;10.30;98.20
306;DHT22;137;48.578;9.180;2024-02-15T00:28:52;10.30;98.20
306;DHT22;137;48.578;9.180;2024-02-15T00:31:18;10.30;98.20
306;DHT22;137;48.578;9.180;2024-02-15T00:33:45;10.20;98.20
306;DHT22;137;48.578;9.180;2024-02-15T00:36:12;10.20;98.20
306;DHT22;137;48.578;9.180;2024-02-15T00:38:38;10.20;98.20
306;DHT22;137;48.578;9.180;2024-02-15T00:41:07;10.20;98.20
306;DHT22;137;48.578;9.180;2024-02-15T00:43:34;10.30;98.20
306;DHT22;137;48.578;9.180;2024-02-15T00:46:01;10.30;98.20
306;DHT22;137;48.578;9.180;2024-02-15T00:48:28;10.30;98.20
306;DHT22;137;48.578;9.180;2024-02-15T00:50:55;10.40;98.20
306;DHT22;137;48.578;9.180;2024-02-15T00:53:22;10.40;98.20
306;DHT22;137;48.578;9.180;2024-02-15T00:55:49;10.40;98.20
306;DHT22;137;48.578;9.180;2024-02-15T00:58:17;10.30;98.20
306;DHT22;137;48.578;9.180;2024-02-15T01:00:43;10.20;98.20
306;DHT22;137;48.578;9.180;2024-02-15T01:03:10;10.10;98.20
306;DHT22;137;48.578;9.180;2024-02-15T01:05:37;9.90;98.20
306;DHT22;137;48.578;9.180;2024-02-15T01:08:04;9.80;98.20
306;DHT22;137;48.578;9.180;2024-02-15T01:10:30;9.70;98.20
306;DHT22;137;48.578;9.180;2024-02-15T01:12:59;9.70;98.20
306;DHT22;137;48.578;9.180;2024-02-15T01:15:27;9.60;98.20
306;DHT22;137;48.578;9.180;2024-02-15T01:17:54;9.60;98.20
306;DHT22;137;48.578;9.180;2024-02-15T01:20:21;9.50;98.20
306;DHT22;137;48.578;9.180;2024-02-15T01:22:47;9.40;98.20
306;DHT22;137;48.578;9.180;2024-02-15T01:25:15;9.40;98.20
306;DHT22;137;48.578;9.180;2024-02-15T01:27:43;9.30;98.20
306;DHT22;137;48.578;9.180;2024-02-15T01:30:10;9.20;98.20
306;DHT22;137;48.578;9.180;2024-02-15T01:32:38;9.20;98.20
306;DHT22;137;48.578;9.180;2024-02-15T01:35:07;9.10;98.20
306;DHT22;137;48.578;9.180;2024-02-15T01:37:35;9.10;98.20
306;DHT22;137;48.578;9.180;2024-02-15T01:40:02;9.10;98.20
306;DHT22;137;48.578;9.180;2024-02-15T01:42:32;9.00;98.20
306;DHT22;137;48.578;9.180;2024-02-15T01:44:58;9.00;98.20
306;DHT22;137;48.578;9.180;2024-02-15T01:47:25;9.00;98.20
306;DHT22;137;48.578;9.180;2024-02-15T01:49:53;9.00;98.20
306;DHT22;137;48.578;9.180;2024-02-15T01:52:21;9.00;98.20
306;DHT22;137;48.578;9.180;2024-02-15T01:54:48;8.90;98.20
306;DHT22;137;48.578;9.180;2024-02-15T01:57:17;8.80;98.20
306;DHT22;137;48.578;9.180;2024-02-15T01:59:46;8.70;98.20
306;DHT22;137;48.578;9.180;2024-02-15T02:02:14;8.60;98.20
306;DHT22;137;48.578;9.180;2024-02-15T02:04:42;8.60;98.20
306;DHT22;137;48.578;9.180;2024-02-15T02:07:10;8.50;98.20
306;DHT22;137;48.578;9.180;2024-02-15T02:09:37;8.40;98.20
306;DHT22;137;48.578;9.180;2024-02-15T02:12:04;8.40;98.20
306;DHT22;137;48.578;9.180;2024-02-15T02:14:33;8.30;98.20
306;DHT22;137;48.578;9.180;2024-02-15T02:17:11;8.10;98.20
306;DHT22;137;48.578;9.180;2024-02-15T02:19:39;8.10;98.20
306;DHT22;137;48.578;9.180;2024-02-15T02:22:05;8.00;98.20
306;DHT22;137;48.578;9.180;2024-02-15T02:24:40;8.00;98.20
306;DHT22;137;48.578;9.180;2024-02-15T02:27:13;8.00;98.20
306;DHT22;137;48.578;9.180;2024-02-15T02:29:42;7.90;98.20
306;DHT22;137;48.578;9.180;2024-02-15T02:32:11;7.80;98.20
306;DHT22;137;48.578;9.180;2024-02-15T02:34:37;7.80;98.20
306;DHT22;137;48.578;9.180;2024-02-15T02:37:06;7.80;98.20
306;DHT22;137;48.578;9.180;2024-02-15T02:39:33;7.70;98.20
306;DHT22;137;48.578;9.180;2024-02-15T02:42:00;7.70;98.20
306;DHT22;137;48.578;9.180;2024-02-15T02:44:28;7.60;98.20
306;DHT22;137;48.578;9.180;2024-02-15T02:46:55;7.50;98.20
306;DHT22;137;48.578;9.180;2024-02-15T02:49:22;7.50;98.20
306;DHT22;137;48.578;9.180;2024-02-15T02:51:48;7.40;98.20
306;DHT22;137;48.578;9.180;2024-02-15T02:54:15;7.40;98.20
306;DHT22;137;48.578;9.180;2024-02-15T02:56:43;7.30;98.20
306;DHT22;137;48.578;9.180;2024-02-15T02:59:10;7.30;98.20
306;DHT22;137;48.578;9.180;2024-02-15T03:01:39;7.20;98.20
306;DHT22;137;48.578;9.180;2024-02-15T03:04:06;7.10;98.20
306;DHT22;137;48.578;9.180;2024-02-15T03:06:33;7.00;98.20
306;DHT22;137;48.578;9.180;2024-02-15T03:09:01;7.00;98.20
306;DHT22;137;48.578;9.180;2024-02-15T03:11:32;6.90;98.20
306;DHT22;137;48.578;9.180;2024-02-15T03:14:00;6.90;98.20
306;DHT22;137;48.578;9.180;2024-02-15T03:16:29;6.90;98.20
306;DHT22;137;48.578;9.180;2024-02-15T03:18:57;6.90;98.20
306;DHT22;137;48.578;9.180;2024-02-15T03:21:26;6.90;98.20
306;DHT22;137;48.578;9.180;2024-02-15T03:23:53;6.90;98.20
306;DHT22;137;48.578;9.180;2024-02-15T03:26:29;6.90;98.20
306;DHT22;137;48.578;9.180;2024-02-15T03:29:03;6.90;98.20
306;DHT22;137;48.578;9.180;2024-02-15T03:31:30;6.90;98.20
306;DHT22;137;48.578;9.180;2024-02-15T03:33:58;6.90;98.20
306;DHT22;137;48.578;9.180;2024-02-15T03:36:26;6.90;98.20
306;DHT22;137;48.578;9.180;2024-02-15T03:38:54;6.90;98.20
306;DHT22;137;48.578;9.180;2024-02-15T03:41:21;6.90;98.20
306;DHT22;137;48.578;9.180;2024-02-15T03:43:48;6.80;98.20
306;DHT22;137;48.578;9.180;2024-02-15T03:46:15;6.70;98.20
306;DHT22;137;48.578;9.180;2024-02-15T03:48:42;6.60;98.20
306;DHT22;137;48.578;9.180;2024-02-15T03:51:16;6.50;98.20
306;DHT22;137;48.578;9.180;2024-02-15T03:53:44;6.40;98.20
306;DHT22;137;48.578;9.180;2024-02-15T03:56:11;6.40;98.20
306;DHT22;137;48.578;9.180;2024-02-15T03:58:38;6.30;98.20
306;DHT22;137;48.578;9.180;2024-02-15T04:01:05;6.30;98.20
306;DHT22;137;48.578;9.180;2024-02-15T04:03:35;6.20;98.20
306;DHT22;137;48.578;9.180;2024-02-15T04:06:02;6.20;98.20
306;DHT22;137;48.578;9.180;2024-02-15T04:08:31;6.20;98.20
306;DHT22;137;48.578;9.180;2024-02-15T04:10:58;6.20;98.20
306;DHT22;137;48.578;9.180;2024-02-15T04:13:24;6.20;98.20
306;DHT22;137;48.578;9.180;2024-02-15T04:15:51;6.20;98.20
306;DHT22;137;48.578;9.180;2024-02-15T04:18:18;6.20;98.20
306;DHT22;137;48.578;9.180;2024-02-15T04:20:45;6.20;98.20
306;DHT22;137;48.578;9.180;2024-02-15T04:23:12;6.30;98.20
306;DHT22;137;48.578;9.180;2024-02-15T04:25:40;6.40;98.20
306;DHT22;137;48.578;9.180;2024-02-15T04:28:09;6.60;98.20
306;DHT22;137;48.578;9.180;2024-02-15T04:30:36;6.70;98.20
306;DHT22;137;48.578;9.180;2024-02-15T04:33:06;6.80;98.20
306;DHT22;137;48.578;9.180;2024-02-15T04:35:33;6.80;98.20
306;DHT22;137;48.578;9.180;2024-02-15T04:40:32;7.00;98.20
306;DHT22;137;48.578;9.180;2024-02-15T04:43:00;7.00;98.20
306;DHT22;137;48.578;9.180;2024-02-15T04:45:29;7.10;98.20
306;DHT22;137;48.578;9.180;2024-02-15T04:47:57;7.10;98.20
306;DHT22;137;48.578;9.180;2024-02-15T04:50:27;7.10;98.20
306;DHT22;137;48.578;9.180;2024-02-15T04:52:54;7.20;98.20
306;DHT22;137;48.578;9.180;2024-02-15T04:55:22;7.20;98.20
306;DHT22;137;48.578;9.180;2024-02-15T04:57:48;7.20;98.20
306;DHT22;137;48.578;9.180;2024-02-15T05:00:22;7.20;98.20
306;DHT22;137;48.578;9.180;2024-02-15T05:02:51;7.20;98.20
306;DHT22;137;48.578;9.180;2024-02-15T05:05:18;7.20;98.20
306;DHT22;137;48.578;9.180;2024-02-15T05:07:45;7.10;98.20
306;DHT22;137;48.578;9.180;2024-02-15T05:10:14;7.10;98.20
306;DHT22;137;48.578;9.180;2024-02-15T05:12:41;7.10;98.20
306;DHT22;137;48.578;9.180;2024-02-15T05:15:09;7.00;98.20
306;DHT22;137;48.578;9.180;2024-02-15T05:17:38;7.00;98.20
306;DHT22;137;48.578;9.180;2024-02-15T05:20:08;6.90;98.20
306;DHT22;137;48.578;9.180;2024-02-15T05:22:37;6.90;98.20
306;DHT22;137;48.578;9.180;2024-02-15T05:25:06;6.90;98.20
306;DHT22;137;48.578;9.180;2024-02-15T05:27:33;6.90;98.20
306;DHT22;137;48.578;9.180;2024-02-15T05:30:02;6.90;98.20
306;DHT22;137;48.578;9.180;2024-02-15T05:32:32;6.90;98.20
306;DHT22;137;48.578;9.180;2024-02-15T05:35:00;6.80;98.20
306;DHT22;137;48.578;9.180;2024-02-15T05:37:27;6.80;98.20
306;DHT22;137;48.578;9.180;2024-02-15T05:39:54;6.80;98.20
306;DHT22;137;48.578;9.180;2024-02-15T05:42:20;6.70;98.20
306;DHT22;137;48.578;9.180;2024-02-15T05:44:49;6.70;98.20
306;DHT22;137;48.578;9.180;2024-02-15T05:47:16;6.60;98.20
306;DHT22;137;48.578;9.180;2024-02-15T05:49:43;6.60;98.20
306;DHT22;137;48.578;9.180;2024-02-15T05:52:11;6.50;98.20
306;DHT22;137;48.578;9.180;2024-02-15T05:54:38;6.50;98.20
306;DHT22;137;48.578;9.180;2024-02-15T05:57:07;6.40;98.20
306;DHT22;137;48.578;9.180;2024-02-15T05:59:34;6.40;98.20
306;DHT22;137;48.578;9.180;2024-02-15T06:02:01;6.40;98.20
306;DHT22;137;48.578;9.180;2024-02-15T06:04:28;6.30;98.20
306;DHT22;137;48.578;9.180;2024-02-15T06:06:55;6.30;98.20
306;DHT22;137;48.578;9.180;2024-02-15T06:09:27;6.20;98.20
306;DHT22;137;48.578;9.180;2024-02-15T06:11:55;6.20;98.20
306;DHT22;137;48.578;9.180;2024-02-15T06:14:23;6.20;98.20
306;DHT22;137;48.578;9.180;2024-02-15T06:16:50;6.20;98.20
306;DHT22;137;48.578;9.180;2024-02-15T06:19:27;6.20;98.20
306;DHT22;137;48.578;9.180;2024-02-15T06:21:53;6.10;98.20
306;DHT22;137;48.578;9.180;2024-02-15T06:24:20;6.10;98.20
306;DHT22;137;48.578;9.180;2024-02-15T06:26:47;6.10;98.20
306;DHT22;137;48.578;9.180;2024-02-15T06:29:17;6.10;98.20
306;DHT22;137;48.578;9.180;2024-02-15T06:32:01;6.10;98.20
306;DHT22;137;48.578;9.180;2024-02-15T06:34:46;6.10;98.20
306;DHT22;137;48.578;9.180;2024-02-15T06:37:37;6.10;98.20
306;DHT22;137;48.578;9.180;2024-02-15T06:40:21;6.00;98.20
306;DHT22;137;48.578;9.180;2024-02-15T06:42:48;6.00;98.20
306;DHT22;137;48.578;9.180;2024-02-15T06:45:15;6.00;98.20
306;DHT22;137;48.578;9.180;2024-02-15T06:47:42;5.90;98.20
306;DHT22;137;48.578;9.180;2024-02-15T06:50:11;6.00;98.20
306;DHT22;137;48.578;9.180;2024-02-15T06:52:38;6.00;98.20
306;DHT22;137;48.578;9.180;2024-02-15T06:55:07;6.00;98.20
306;DHT22;137;48.578;9.180;2024-02-15T06:57:34;6.10;98.20
306;DHT22;137;48.578;9.180;2024-02-15T07:00:02;6.10;98.20
306;DHT22;137;48.578;9.180;2024-02-15T07:02:30;6.20;98.20
306;DHT22;137;48.578;9.180;2024-02-15T07:04:58;6.20;98.20
306;DHT22;137;48.578;9.180;2024-02-15T07:07:26;6.30;98.20
306;DHT22;137;48.578;9.180;2024-02-15T07:09:53;6.40;98.20
306;DHT22;137;48.578;9.180;2024-02-15T07:12:20;6.40;98.20
306;DHT22;137;48.578;9.180;2024-02-15T07:14:47;6.50;98.20
306;DHT22;137;48.578;9.180;2024-02-15T07:17:14;6.50;98.20
306;DHT22;137;48.578;9.180;2024-02-15T07:19:42;6.60;98.20
306;DHT22;137;48.578;9.180;2024-02-15T07:22:09;6.70;98.20
306;DHT22;137;48.578;9.180;2024-02-15T07:24:38;6.80;98.20
306;DHT22;137;48.578;9.180;2024-02-15T07:27:05;7.00;98.20
306;DHT22;137;48.578;9.180;2024-02-15T07:29:32;7.10;98.20
306;DHT22;137;48.578;9.180;2024-02-15T07:32:00;7.20;98.20
306;DHT22;137;48.578;9.180;2024-02-15T07:34:29;7.30;98.20
306;DHT22;137;48.578;9.180;2024-02-15T07:36:56;7.40;98.20
306;DHT22;137;48.578;9.180;2024-02-15T07:39:24;7.60;98.20
306;DHT22;137;48.578;9.180;2024-02-15T07:41:55;7.70;98.20
306;DHT22;137;48.578;9.180;2024-02-15T07:44:23;7.90;98.20
306;DHT22;137;48.578;9.180;2024-02-15T07:46:50;8.10;98.20
306;DHT22;137;48.578;9.180;2024-02-15T07:49:17;8.30;98.20
306;DHT22;137;48.578;9.180;2024-02-15T07:51:44;8.50;98.20
306;DHT22;137;48.578;9.180;2024-02-15T07:54:17;8.70;98.20
306;DHT22;137;48.578;9.180;2024-02-15T07:56:46;8.80;98.20
306;DHT22;137;48.578;9.180;2024-02-15T07:59:15;9.00;98.20
306;DHT22;137;48.578;9.180;2024-02-15T08:01:42;9.20;98.20
306;DHT22;137;48.578;9.180;2024-02-15T08:04:11;9.40;98.20
306;DHT22;137;48.578;9.180;2024-02-15T08:06:38;9.50;98.20
306;DHT22;137;48.578;9.180;2024-02-15T08:09:05;9.60;98.20
306;DHT22;137;48.578;9.180;2024-02-15T08:11:32;9.70;98.20
306;DHT22;137;48.578;9.180;2024-02-15T08:13:59;9.80;98.20
306;DHT22;137;48.578;9.180;2024-02-15T08:16:27;9.90;98.20
306;DHT22;137;48.578;9.180;2024-02-15T08:18:54;10.00;98.20
306;DHT22;137;48.578;9.180;2024-02-15T08:21:25;10.10;98.20
306;DHT22;137;48.578;9.180;2024-02-15T08:23:54;10.30;98.20
306;DHT22;137;48.578;9.180;2024-02-15T08:26:21;10.50;98.20
306;DHT22;137;48.578;9.180;2024-02-15T08:28:48;10.60;98.20
306;DHT22;137;48.578;9.180;2024-02-15T08:31:15;10.80;98.20
306;DHT22;137;48.578;9.180;2024-02-15T08:33:43;11.00;98.20
306;DHT22;137;48.578;9.180;2024-02-15T08:36:11;11.00;98.20
306;DHT22;137;48.578;9.180;2024-02-15T08:38:38;11.00;98.20
306;DHT22;137;48.578;9.180;2024-02-15T08:41:06;11.00;98.20
306;DHT22;137;48.578;9.180;2024-02-15T08:43:33;11.00;98.20
306;DHT22;137;48.578;9.180;2024-02-15T08:46:00;11.00;98.20
306;DHT22;137;48.578;9.180;2024-02-15T08:48:27;11.10;98.20
306;DHT22;137;48.578;9.180;2024-02-15T08:50:57;11.10;98.20
306;DHT22;137;48.578;9.180;2024-02-15T08:53:24;11.10;98.20
306;DHT22;137;48.578;9.180;2024-02-15T08:55:52;11.10;98.20
306;DHT22;137;48.578;9.180;2024-02-15T08:58:19;11.10;98.20
306;DHT22;137;48.578;9.180;2024-02-15T09:00:46;11.10;98.20
306;DHT22;137;48.578;9.180;2024-02-15T09:03:13;11.10;98.20
306;DHT22;137;48.578;9.180;2024-02-15T09:05:40;11.20;98.20
306;DHT22;137;48.578;9.180;2024-02-15T09:08:08;11.20;98.20
306;DHT22;137;48.578;9.180;2024-02-15T09:10:35;11.20;98.20
306;DHT22;137;48.578;9.180;2024-02-15T09:13:04;11.20;98.20
306;DHT22;137;48.578;9.180;2024-02-15T09:15:32;11.20;98.20
306;DHT22;137;48.578;9.180;2024-02-15T09:17:58;11.40;98.20
306;DHT22;137;48.578;9.180;2024-02-15T09:20:25;11.60;98.20
306;DHT22;137;48.578;9.180;2024-02-15T09:22:54;11.70;98.20
306;DHT22;137;48.578;9.180;2024-02-15T09:25:23;11.90;98.20
306;DHT22;137;48.578;9.180;2024-02-15T09:27:50;12.10;98.20
306;DHT22;137;48.578;9.180;2024-02-15T09:30:19;12.30;98.20
306;DHT22;137;48.578;9.180;2024-02-15T09:32:50;12.50;98.20
306;DHT22;137;48.578;9.180;2024-02-15T09:35:17;12.70;98.20
306;DHT22;137;48.578;9.180;2024-02-15T09:37:45;12.90;98.20
306;DHT22;137;48.578;9.180;2024-02-15T09:40:14;13.00;98.20
306;DHT22;137;48.578;9.180;2024-02-15T09:42:44;13.10;98.20
306;DHT22;137;48.578;9.180;2024-02-15T09:45:12;13.30;98.20
306;DHT22;137;48.578;9.180;2024-02-15T09:47:40;13.40;98.20
306;DHT22;137;48.578;9.180;2024-02-15T09:50:08;13.60;98.20
306;DHT22;137;48.578;9.180;2024-02-15T09:52:38;13.80;98.20
306;DHT22;137;48.578;9.180;2024-02-15T09:55:07;13.80;98.20
306;DHT22;137;48.578;9.180;2024-02-15T09:57:36;13.90;98.20
306;DHT22;137;48.578;9.180;2024-02-15T10:00:06;14.00;98.20
306;DHT22;137;48.578;9.180;2024-02-15T10:02:34;14.10;98.20
306;DHT22;137;48.578;9.180;2024-02-15T10:05:02;14.10;98.20
306;DHT22;137;48.578;9.180;2024-02-15T10:07:29;14.20;98.20
306;DHT22;137;48.578;9.180;2024-02-15T10:09:56;14.30;98.20
306;DHT22;137;48.578;9.180;2024-02-15T10:12:37;14.40;98.20
306;DHT22;137;48.578;9.180;2024-02-15T10:15:06;14.70;98.20
306;DHT22;137;48.578;9.180;2024-02-15T10:17:35;14.80;98.20
306;DHT22;137;48.578;9.180;2024-02-15T10:20:06;14.90;98.20
306;DHT22;137;48.578;9.180;2024-02-15T10:22:35;15.00;98.20
306;DHT22;137;48.578;9.180;2024-02-15T10:25:13;15.10;98.20
306;DHT22;137;48.578;9.180;2024-02-15T10:27:40;15.30;98.20
306;DHT22;137;48.578;9.180;2024-02-15T10:30:18;15.40;98.20
306;DHT22;137;48.578;9.180;2024-02-15T10:32:46;15.50;98.20
306;DHT22;137;48.578;9.180;2024-02-15T10:35:20;15.50;98.20
306;DHT22;137;48.578;9.180;2024-02-15T10:37:48;15.60;98.20
306;DHT22;137;48.578;9.180;2024-02-15T10:40:22;15.80;98.20
306;DHT22;137;48.578;9.180;2024-02-15T10:42:51;15.80;98.20
306;DHT22;137;48.578;9.180;2024-02-15T10:45:19;15.80;98.20
306;DHT22;137;48.578;9.180;2024-02-15T10:47:46;15.90;98.20
306;DHT22;137;48.578;9.180;2024-02-15T10:50:14;16.00;98.20
306;DHT22;137;48.578;9.180;2024-02-15T10:52:48;16.00;98.20
306;DHT22;137;48.578;9.180;2024-02-15T10:55:21;16.10;98.20
306;DHT22;137;48.578;9.180;2024-02-15T10:57:51;16.20;98.20
306;DHT22;137;48.578;9.180;2024-02-15T11:00:21;16.10;98.20
306;DHT22;137;48.578;9.180;2024-02-15T11:03:00;16.00;98.20
306;DHT22;137;48.578;9.180;2024-02-15T11:05:31;16.00;98.20
306;DHT22;137;48.578;9.180;2024-02-15T11:08:00;15.90;98.20
306;DHT22;137;48.578;9.180;2024-02-15T11:10:27;16.00;98.20
306;DHT22;137;48.578;9.180;2024-02-15T11:12:55;16.20;98.20
306;DHT22;137;48.578;9.180;2024-02-15T11:15:45;16.30;98.20
306;DHT22;137;48.578;9.180;2024-02-15T11:18:45;16.30;98.20
306;DHT22;137;48.578;9.180;2024-02-15T11:21:15;16.60;98.20
306;DHT22;137;48.578;9.180;2024-02-15T11:23:42;16.60;98.20
306;DHT22;137;48.578;9.180;2024-02-15T11:26:10;16.60;98.20
306;DHT22;137;48.578;9.180;2024-02-15T11:28:57;16.90;98.20
306;DHT22;137;48.578;9.180;2024-02-15T11:31:54;16.80;98.20
306;DHT22;137;48.578;9.180;2024-02-15T11:34:43;16.50;98.20
306;DHT22;137;48.578;9.180;2024-02-15T11:40:19;16.70;98.20
306;DHT22;137;48.578;9.180;2024-02-15T11:42:45;16.60;98.20
306;DHT22;137;48.578;9.180;2024-02-15T11:45:13;16.50;98.20
306;DHT22;137;48.578;9.180;2024-02-15T11:47:47;16.50;98.20
306;DHT22;137;48.578;9.180;2024-02-15T11:50:15;16.60;98.20
306;DHT22;137;48.578;9.180;2024-02-15T11:52:44;16.70;98.20
306;DHT22;137;48.578;9.180;2024-02-15T11:55:12;16.70;98.20
306;DHT22;137;48.578;9.180;2024-02-15T11:57:39;16.70;98.20
306;DHT22;137;48.578;9.180;2024-02-15T12:00:22;16.80;98.20
306;DHT22;137;48.578;9.180;2024-02-15T12:03:08;16.70;98.20
306;DHT22;137;48.578;9.180;2024-02-15T12:05:54;16.70;98.20
306;DHT22;137;48.578;9.180;2024-02-15T12:08:38;16.70;98.20
306;DHT22;137;48.578;9.180;2024-02-15T12:11:37;16.70;98.20
306;DHT22;137;48.578;9.180;2024-02-15T12:14:22;16.90;98.20
306;DHT22;137;48.578;9.180;2024-02-15T12:17:07;17.10;98.20
306;DHT22;137;48.578;9.180;2024-02-15T12:19:54;17.20;98.20
306;DHT22;137;48.578;9.180;2024-02-15T12:22:23;17.50;98.20
306;DHT22;137;48.578;9.180;2024-02-15T12:24:55;17.40;98.20
306;DHT22;137;48.578;9.180;2024-02-15T12:27:23;17.50;98.20
306;DHT22;137;48.578;9.180;2024-02-15T12:29:53;17.60;98.20
306;DHT22;137;48.578;9.180;2024-02-15T12:32:21;17.50;98.20
306;DHT22;137;48.578;9.180;2024-02-15T12:34:48;17.50;98.20
306;DHT22;137;48.578;9.180;2024-02-15T12:37:19;17.60;98.20
306;DHT22;137;48.578;9.180;2024-02-15T12:39:47;17.70;98.20
306;DHT22;137;48.578;9.180;2024-02-15T12:42:15;17.50;98.20
306;DHT22;137;48.578;9.180;2024-02-15T12:44:46;17.50;98.20
306;DHT22;137;48.578;9.180;2024-02-15T12:47:23;17.50;98.20
306;DHT22;137;48.578;9.180;2024-02-15T12:49:50;17.40;98.20
306;DHT22;137;48.578;9.180;2024-02-15T12:52:37;17.50;98.20
306;DHT22;137;48.578;9.180;2024-02-15T12:55:22;17.60;98.20
306;DHT22;137;48.578;9.180;2024-02-15T12:57:50;17.60;98.20
306;DHT22;137;48.578;9.180;2024-02-15T13:00:18;17.70;98.20
306;DHT22;137;48.578;9.180;2024-02-15T13:02:47;17.60;98.20
306;DHT22;137;48.578;9.180;2024-02-15T13:05:14;17.60;98.20
306;DHT22;137;48.578;9.180;2024-02-15T13:07:46;17.60;98.20
306;DHT22;137;48.578;9.180;2024-02-15T13:10:13;17.70;98.20
306;DHT22;137;48.578;9.180;2024-02-15T13:12:41;17.80;98.20
306;DHT22;137;48.578;9.180;2024-02-15T13:15:10;17.80;98.20
306;DHT22;137;48.578;9.180;2024-02-15T13:17:40;17.90;98.20
306;DHT22;137;48.578;9.180;2024-02-15T13:20:10;17.90;98.20
306;DHT22;137;48.578;9.180;2024-02-15T13:22:39;17.80;98.20
306;DHT22;137;48.578;9.180;2024-02-15T13:25:08;17.70;98.20
306;DHT22;137;48.578;9.180;2024-02-15T13:27:35;17.70;98.20
306;DHT22;137;48.578;9.180;2024-02-15T13:30:04;17.80;98.20
306;DHT22;137;48.578;9.180;2024-02-15T13:32:34;17.80;98.20
306;DHT22;137;48.578;9.180;2024-02-15T13:35:01;17.80;98.20
306;DHT22;137;48.578;9.180;2024-02-15T13:37:33;17.90;98.20
306;DHT22;137;48.578;9.180;2024-02-15T13:40:00;18.00;98.20
306;DHT22;137;48.578;9.180;2024-02-15T13:42:30;18.00;98.20
306;DHT22;137;48.578;9.180;2024-02-15T13:44:58;18.00;98.20
306;DHT22;137;48.578;9.180;2024-02-15T13:47:25;17.90;98.20
306;DHT22;137;48.578;9.180;2024-02-15T13:49:52;18.00;98.20
306;DHT22;137;48.578;9.180;2024-02-15T13:52:19;18.00;98.20
306;DHT22;137;48.578;9.180;2024-02-15T13:54:47;18.00;98.20
306;DHT22;137;48.578;9.180;2024-02-15T13:57:14;18.00;98.20
306;DHT22;137;48.578;9.180;2024-02-15T13:59:44;18.10;98.20
306;DHT22;137;48.578;9.180;2024-02-15T14:02:10;18.10;98.20
306;DHT22;137;48.578;9.180;2024-02-15T14:04:37;17.90;98.20
306;DHT22;137;48.578;9.180;2024-02-15T14:07:04;17.80;98.20
306;DHT22;137;48.578;9.180;2024-02-15T14:09:31;17.80;98.20
306;DHT22;137;48.578;9.180;2024-02-15T14:11:58;17.80;98.20
306;DHT22;137;48.578;9.180;2024-02-15T14:14:24;17.70;98.20
306;DHT22;137;48.578;9.180;2024-02-15T14:16:52;17.60;98.20
306;DHT22;137;48.578;9.180;2024-02-15T14:19:19;17.60;98.20
306;DHT22;137;48.578;9.180;2024-02-15T14:21:46;17.60;98.20
306;DHT22;137;48.578;9.180;2024-02-15T14:24:13;17.40;98.20
306;DHT22;137;48.578;9.180;2024-02-15T14:26:40;17.30;98.20
306;DHT22;137;48.578;9.180;2024-02-15T14:29:07;17.30;98.20
306;DHT22;137;48.578;9.180;2024-02-15T14:31:35;17.40;98.20
306;DHT22;137;48.578;9.180;2024-02-15T14:34:20;17.40;98.20
306;DHT22;137;48.578;9.180;2024-02-15T14:36:47;17.40;98.20
306;DHT22;137;48.578;9.180;2024-02-15T14:39:14;17.30;98.20
306;DHT22;137;48.578;9.180;2024-02-15T14:41:41;17.20;98.20
306;DHT22;137;48.578;9.180;2024-02-15T14:44:09;17.10;98.20
306;DHT22;137;48.578;9.180;2024-02-15T14:46:38;17.10;98.20
306;DHT22;137;48.578;9.180;2024-02-15T14:49:06;17.10;98.20
306;DHT22;137;48.578;9.180;2024-02-15T14:51:35;17.10;98.20
306;DHT22;137;48.578;9.180;2024-02-15T14:54:04;17.20;98.20
306;DHT22;137;48.578;9.180;2024-02-15T14:56:31;17.20;98.20
306;DHT22;137;48.578;9.180;2024-02-15T14:58:59;17.20;98.20
306;DHT22;137;48.578;9.180;2024-02-15T15:01:26;17.30;98.20
306;DHT22;137;48.578;9.180;2024-02-15T15:03:55;17.30;98.20
306;DHT22;137;48.578;9.180;2024-02-15T15:06:24;17.30;98.20
306;DHT22;137;48.578;9.180;2024-02-15T15:09:09;17.20;98.20
306;DHT22;137;48.578;9.180;2024-02-15T15:12:08;17.20;98.20
306;DHT22;137;48.578;9.180;2024-02-15T15:14:52;17.20;98.20
306;DHT22;137;48.578;9.180;2024-02-15T15:17:20;17.20;98.20
306;DHT22;137;48.578;9.180;2024-02-15T15:19:47;17.10;98.20
306;DHT22;137;48.578;9.180;2024-02-15T15:22:14;17.00;98.20
306;DHT22;137;48.578;9.180;2024-02-15T15:24:49;16.90;98.20
306;DHT22;137;48.578;9.180;2024-02-15T15:27:15;16.80;98.20
306;DHT22;137;48.578;9.180;2024-02-15T15:29:43;16.70;98.20
306;DHT22;137;48.578;9.180;2024-02-15T15:32:10;16.60;98.20
306;DHT22;137;48.578;9.180;2024-02-15T15:34:37;16.50;98.20
306;DHT22;137;48.578;9.180;2024-02-15T15:37:04;16.40;98.20
306;DHT22;137;48.578;9.180;2024-02-15T15:39:32;16.40;98.20
306;DHT22;137;48.578;9.180;2024-02-15T15:42:03;16.30;98.20
306;DHT22;137;48.578;9.180;2024-02-15T15:44:32;16.20;98.20
306;DHT22;137;48.578;9.180;2024-02-15T15:46:59;16.10;98.20
306;DHT22;137;48.578;9.180;2024-02-15T15:49:26;16.10;98.20
306;DHT22;137;48.578;9.180;2024-02-15T15:51:53;16.00;98.20
306;DHT22;137;48.578;9.180;2024-02-15T15:54:19;15.90;98.20
306;DHT22;137;48.578;9.180;2024-02-15T15:56:46;15.80;98.20
306;DHT22;137;48.578;9.180;2024-02-15T15:59:14;15.70;98.20
306;DHT22;137;48.578;9.180;2024-02-15T16:01:47;15.60;98.20
306;DHT22;137;48.578;9.180;2024-02-15T16:04:15;15.50;98.20
306;DHT22;137;48.578;9.180;2024-02-15T16:06:42;15.30;98.20
306;DHT22;137;48.578;9.180;2024-02-15T16:09:09;15.20;98.20
306;DHT22;137;48.578;9.180;2024-02-15T16:11:36;15.20;98.20
306;DHT22;137;48.578;9.180;2024-02-15T16:14:09;15.10;98.20
306;DHT22;137;48.578;9.180;2024-02-15T16:16:38;15.00;98.20
306;DHT22;137;48.578;9.180;2024-02-15T16:19:05;14.90;98.20
306;DHT22;137;48.578;9.180;2024-02-15T16:21:32;14.80;98.20
306;DHT22;137;48.578;9.180;2024-02-15T16:23:59;14.70;98.20
306;DHT22;137;48.578;9.180;2024-02-15T16:26:26;14.60;98.20
306;DHT22;137;48.578;9.180;2024-02-15T16:28:53;14.50;98.20
306;DHT22;137;48.578;9.180;2024-02-15T16:31:19;14.40;98.20
306;DHT22;137;48.578;9.180;2024-02-15T16:33:48;14.30;98.20
306;DHT22;137;48.578;9.180;2024-02-15T16:36:15;14.20;98.20
306;DHT22;137;48.578;9.180;2024-02-15T16:38:42;14.10;98.20
306;DHT22;137;48.578;9.180;2024-02-15T16:41:09;14.10;98.20
306;DHT22;137;48.578;9.180;2024-02-15T16:43:36;14.00;98.20
306;DHT22;137;48.578;9.180;2024-02-15T16:46:03;14.00;98.20
306;DHT22;137;48.578;9.180;2024-02-15T16:48:30;13.90;98.20
306;DHT22;137;48.578;9.180;2024-02-15T16:51:00;13.80;98.20
306;DHT22;137;48.578;9.180;2024-02-15T16:53:27;13.80;98.20
306;DHT22;137;48.578;9.180;2024-02-15T16:55:54;13.70;98.20
306;DHT22;137;48.578;9.180;2024-02-15T16:58:21;13.70;98.20
306;DHT22;137;48.578;9.180;2024-02-15T17:00:50;13.60;98.20